createdAt,value
2023-05-08T00:01:32.194Z,6.58
2023-05-08T00:03:59.642Z,6.50
2023-05-08T00:06:29.861Z,6.53
2023-05-08T00:08:57.204Z,6.46
2023-05-08T00:11:24.561Z,6.42
2023-05-08T00:13:52.000Z,6.37
2023-05-08T00:16:19.214Z,6.37
2023-05-08T00:18:47.115Z,6.55
2023-05-08T00:21:14.365Z,6.47
2023-05-08T00:23:41.819Z,6.49
2023-05-08T00:26:08.838Z,6.44
2023-05-08T00:28:36.228Z,6.56
2023-05-08T00:31:03.485Z,6.49
2023-05-08T00:33:30.812Z,6.26
2023-05-08T00:36:05.781Z,6.31
2023-05-08T00:38:36.593Z,6.42
2023-05-08T00:41:04.358Z,6.36
2023-05-08T00:43:32.136Z,6.35
2023-05-08T00:46:01.496Z,6.42
2023-05-08T00:48:34.110Z,6.25
2023-05-08T00:51:06.408Z,6.28
2023-05-08T00:53:39.364Z,6.17
2023-05-08T00:56:10.994Z,6.09
2023-05-08T00:58:40.732Z,6.02
2023-05-08T01:01:08.199Z,6.00
2023-05-08T01:03:37.618Z,5.98
2023-05-08T01:06:06.735Z,5.97
2023-05-08T01:08:34.934Z,5.90
2023-05-08T01:11:58.317Z,5.90
2023-05-08T01:15:05.542Z,6.04
2023-05-08T01:18:19.690Z,6.04
2023-05-08T01:21:14.455Z,5.97
2023-05-08T01:23:57.449Z,5.93
2023-05-08T01:26:46.397Z,5.91
2023-05-08T01:29:54.948Z,6.12
2023-05-08T01:32:28.647Z,6.02
2023-05-08T01:35:10.917Z,6.17
2023-05-08T01:38:02.863Z,6.16
2023-05-08T01:41:07.892Z,6.01
2023-05-08T01:43:47.313Z,6.05
2023-05-08T01:46:21.848Z,6.26
2023-05-08T01:49:12.603Z,6.06
2023-05-08T01:51:46.013Z,5.97
2023-05-08T01:54:21.164Z,6.01
2023-05-08T01:56:52.864Z,6.08
2023-05-08T01:59:24.544Z,6.03
2023-05-08T02:01:57.170Z,6.10
2023-05-08T02:04:28.334Z,5.92
2023-05-08T02:06:57.934Z,6.02
2023-05-08T02:09:29.480Z,5.98
2023-05-08T02:11:58.434Z,6.03
2023-05-08T02:14:28.752Z,6.01
2023-05-08T02:16:59.294Z,5.91
2023-05-08T02:19:29.811Z,5.91
2023-05-08T02:21:59.849Z,6.07
2023-05-08T02:24:27.718Z,6.02
2023-05-08T02:26:57.326Z,6.01
2023-05-08T02:29:25.867Z,5.93
2023-05-08T02:31:56.059Z,6.10
2023-05-08T02:34:25.587Z,6.09
2023-05-08T02:36:54.636Z,6.19
2023-05-08T02:39:29.761Z,6.22
2023-05-08T02:41:58.026Z,6.04
2023-05-08T02:44:25.746Z,6.19
2023-05-08T02:46:58.363Z,6.29
2023-05-08T02:49:43.517Z,6.05
2023-05-08T02:52:49.190Z,6.03
2023-05-08T02:55:38.162Z,5.82
2023-05-08T02:58:30.064Z,6.11
2023-05-08T03:01:06.574Z,6.07
2023-05-08T03:03:44.669Z,6.03
2023-05-08T03:06:24.392Z,5.81
2023-05-08T03:08:57.293Z,5.84
2023-05-08T03:11:33.487Z,6.03
2023-05-08T03:14:03.370Z,5.98
2023-05-08T03:16:37.337Z,5.86
2023-05-08T03:19:15.112Z,5.96
2023-05-08T03:21:44.334Z,5.77
2023-05-08T03:24:15.632Z,5.81
2023-05-08T03:26:44.416Z,5.97
2023-05-08T03:29:14.581Z,6.00
2023-05-08T03:31:44.969Z,6.08
2023-05-08T03:34:14.745Z,5.83
2023-05-08T03:36:42.793Z,5.95
2023-05-08T03:39:10.145Z,5.75
2023-05-08T03:41:37.840Z,5.65
2023-05-08T03:44:07.025Z,5.77
2023-05-08T03:46:37.980Z,5.85
2023-05-08T03:49:08.815Z,5.69
2023-05-08T03:51:40.837Z,5.69
2023-05-08T03:54:08.251Z,5.71
2023-05-08T03:56:35.966Z,5.62
2023-05-08T03:59:28.133Z,5.60
2023-05-08T04:02:12.000Z,5.80
2023-05-08T04:04:45.795Z,5.72
2023-05-08T04:07:35.305Z,5.67
2023-05-08T04:10:09.245Z,5.59
2023-05-08T04:13:10.962Z,5.82
2023-05-08T04:15:54.872Z,5.69
2023-05-08T04:18:30.603Z,5.58
2023-05-08T04:21:03.231Z,5.47
2023-05-08T04:23:33.804Z,5.56
2023-05-08T04:26:05.604Z,5.57
2023-05-08T04:28:34.936Z,5.48
2023-05-08T04:31:04.967Z,5.50
2023-05-08T04:33:35.515Z,5.65
2023-05-08T04:36:03.641Z,5.72
2023-05-08T04:38:31.934Z,5.62
2023-05-08T04:40:59.711Z,5.47
2023-05-08T04:43:27.527Z,5.53
2023-05-08T04:45:54.649Z,5.59
2023-05-08T04:48:22.450Z,5.45
2023-05-08T04:50:49.617Z,5.45
2023-05-08T04:53:17.019Z,5.43
2023-05-08T04:55:44.206Z,5.55
2023-05-08T04:58:11.767Z,5.61
2023-05-08T05:00:39.140Z,5.70
2023-05-08T05:03:06.660Z,5.62
2023-05-08T05:05:37.666Z,5.55
2023-05-08T05:08:07.047Z,5.60
2023-05-08T05:10:34.249Z,5.60
2023-05-08T05:13:01.720Z,5.65
2023-05-08T05:15:29.046Z,5.67
2023-05-08T05:17:56.868Z,5.75
2023-05-08T05:20:23.933Z,5.86
2023-05-08T05:22:51.397Z,5.89
2023-05-08T05:25:18.734Z,5.83
2023-05-08T05:27:46.558Z,5.83
2023-05-08T05:30:14.304Z,5.83
2023-05-08T05:32:42.291Z,5.97
2023-05-08T05:35:10.570Z,5.99
2023-05-08T05:37:38.632Z,6.08
2023-05-08T05:40:06.998Z,6.11
2023-05-08T05:42:35.984Z,6.17
2023-05-08T05:45:03.625Z,6.24
2023-05-08T05:47:32.411Z,6.23
2023-05-08T05:49:59.997Z,6.31
2023-05-08T05:52:27.483Z,6.31
2023-05-08T05:54:54.571Z,6.33
2023-05-08T05:57:21.989Z,6.36
2023-05-08T05:59:49.760Z,6.39
2023-05-08T06:02:18.922Z,6.51
2023-05-08T06:04:46.841Z,6.56
2023-05-08T06:07:14.868Z,6.47
2023-05-08T06:09:41.972Z,6.56
2023-05-08T06:12:12.029Z,6.58
2023-05-08T06:14:39.440Z,6.76
2023-05-08T06:17:07.134Z,6.71
2023-05-08T06:19:39.041Z,6.70
2023-05-08T06:22:06.432Z,6.73
2023-05-08T06:24:34.271Z,6.87
2023-05-08T06:27:02.019Z,6.96
2023-05-08T06:29:29.148Z,7.02
2023-05-08T06:31:56.880Z,7.04
2023-05-08T06:34:23.992Z,6.97
2023-05-08T06:36:51.484Z,6.89
2023-05-08T06:39:18.623Z,6.93
2023-05-08T06:41:49.259Z,6.95
2023-05-08T06:44:24.803Z,7.04
2023-05-08T06:46:52.313Z,7.14
2023-05-08T06:49:19.826Z,7.35
2023-05-08T06:51:47.287Z,7.45
2023-05-08T06:54:14.419Z,7.44
2023-05-08T06:56:41.890Z,7.50
2023-05-08T06:59:09.490Z,7.57
2023-05-08T07:01:37.542Z,7.61
2023-05-08T07:04:05.727Z,7.76
2023-05-08T07:06:33.924Z,7.77
2023-05-08T07:09:01.001Z,7.83
2023-05-08T07:11:28.463Z,7.90
2023-05-08T07:13:55.889Z,7.99
2023-05-08T07:16:23.248Z,8.14
2023-05-08T07:18:50.432Z,8.29
2023-05-08T07:21:18.795Z,8.46
2023-05-08T07:23:46.008Z,8.68
2023-05-08T07:26:13.786Z,8.77
2023-05-08T07:28:40.961Z,8.85
2023-05-08T07:31:08.486Z,8.91
2023-05-08T07:33:35.685Z,9.08
2023-05-08T07:36:03.303Z,9.06
2023-05-08T07:38:30.681Z,9.18
2023-05-08T07:40:59.609Z,9.30
2023-05-08T07:43:26.938Z,9.64
2023-05-08T07:45:54.479Z,10.17
2023-05-08T07:48:21.736Z,10.52
2023-05-08T07:50:52.356Z,10.79
2023-05-08T07:53:19.598Z,10.91
2023-05-08T07:55:47.077Z,10.96
2023-05-08T07:58:14.481Z,11.11
2023-05-08T08:00:41.876Z,11.15
2023-05-08T08:03:09.055Z,10.92
2023-05-08T08:05:36.618Z,10.91
2023-05-08T08:08:04.360Z,11.11
2023-05-08T08:10:31.973Z,11.32
2023-05-08T08:13:01.851Z,10.97
2023-05-08T08:15:29.528Z,10.91
2023-05-08T08:17:57.160Z,10.90
2023-05-08T08:20:24.623Z,10.98
2023-05-08T08:22:51.874Z,10.63
2023-05-08T08:25:19.377Z,10.78
2023-05-08T08:27:46.648Z,10.76
2023-05-08T08:30:18.311Z,10.69
2023-05-08T08:32:46.740Z,10.78
2023-05-08T08:35:14.855Z,10.82
2023-05-08T08:37:43.105Z,10.95
2023-05-08T08:40:10.895Z,11.08
2023-05-08T08:42:38.030Z,11.07
2023-05-08T08:45:06.688Z,11.21
2023-05-08T08:47:37.899Z,11.06
2023-05-08T08:50:08.502Z,11.07
2023-05-08T08:52:47.016Z,11.05
2023-05-08T08:55:18.539Z,10.89
2023-05-08T08:58:25.467Z,10.78
2023-05-08T09:00:56.168Z,10.86
2023-05-08T09:03:23.610Z,10.99
2023-05-08T09:05:51.837Z,11.41
2023-05-08T09:08:19.414Z,11.18
2023-05-08T09:10:47.171Z,11.21
2023-05-08T09:13:16.211Z,11.53
2023-05-08T09:15:44.752Z,11.65
2023-05-08T09:18:11.953Z,11.50
2023-05-08T09:20:41.357Z,11.27
2023-05-08T09:23:09.025Z,11.35
2023-05-08T09:25:48.017Z,11.23
2023-05-08T09:28:24.316Z,11.25
2023-05-08T09:31:00.058Z,11.45
2023-05-08T09:33:29.389Z,11.52
2023-05-08T09:35:57.656Z,11.63
2023-05-08T09:38:41.811Z,11.56
2023-05-08T09:41:16.245Z,11.77
2023-05-08T09:43:45.204Z,11.82
2023-05-08T09:46:24.770Z,12.01
2023-05-08T09:48:59.070Z,11.82
2023-05-08T09:51:30.321Z,11.51
2023-05-08T09:53:59.721Z,11.66
2023-05-08T09:56:35.415Z,11.63
2023-05-08T09:59:06.275Z,11.32
2023-05-08T10:01:37.302Z,11.71
2023-05-08T10:04:06.166Z,11.69
2023-05-08T10:06:33.896Z,11.76
2023-05-08T10:09:15.193Z,11.73
2023-05-08T10:11:52.379Z,11.76
2023-05-08T10:14:20.884Z,11.85
2023-05-08T10:16:52.799Z,11.85
2023-05-08T10:19:25.429Z,11.84
2023-05-08T10:21:57.747Z,12.03
2023-05-08T10:24:33.695Z,11.58
2023-05-08T10:27:17.960Z,11.38
2023-05-08T10:29:56.832Z,11.54
2023-05-08T10:32:25.851Z,11.55
2023-05-08T10:34:58.596Z,11.38
2023-05-08T10:37:30.227Z,11.47
2023-05-08T10:39:58.728Z,11.55
2023-05-08T10:42:27.781Z,11.75
2023-05-08T10:44:55.662Z,11.72
2023-05-08T10:47:58.072Z,11.68
2023-05-08T10:50:59.467Z,11.84
2023-05-08T10:53:33.546Z,11.74
2023-05-08T10:56:01.248Z,11.75
2023-05-08T10:58:34.355Z,11.91
2023-05-08T11:01:06.756Z,12.02
2023-05-08T11:03:50.825Z,11.99
2023-05-08T11:06:49.306Z,11.84
2023-05-08T11:09:29.499Z,11.57
2023-05-08T11:12:15.554Z,12.06
2023-05-08T11:14:53.633Z,11.96
2023-05-08T11:17:25.959Z,12.20
2023-05-08T11:20:06.875Z,12.28
2023-05-08T11:22:36.876Z,12.50
2023-05-08T11:25:09.618Z,12.64
2023-05-08T11:27:48.915Z,12.15
2023-05-08T11:30:38.896Z,12.48
2023-05-08T11:33:06.854Z,12.83
2023-05-08T11:36:22.211Z,13.00
2023-05-08T11:39:15.606Z,12.89
2023-05-08T11:41:42.997Z,12.81
2023-05-08T11:44:20.780Z,12.85
2023-05-08T11:46:56.183Z,13.01
2023-05-08T11:49:29.421Z,12.91
2023-05-08T11:52:00.005Z,13.18
2023-05-08T11:54:31.564Z,13.03
2023-05-08T11:56:59.793Z,13.20
2023-05-08T11:59:27.276Z,13.04
2023-05-08T12:04:24.783Z,12.92
2023-05-08T12:06:58.993Z,12.99
2023-05-08T12:09:26.879Z,12.82
2023-05-08T12:11:58.033Z,12.82
2023-05-08T12:14:25.196Z,12.45
2023-05-08T12:16:52.811Z,12.97
2023-05-08T12:19:20.321Z,13.11
2023-05-08T12:21:49.066Z,13.25
2023-05-08T12:24:22.814Z,13.12
2023-05-08T12:26:55.494Z,13.20
2023-05-08T12:29:22.916Z,13.12
2023-05-08T12:31:51.004Z,13.07
2023-05-08T12:34:18.433Z,13.36
2023-05-08T12:36:45.850Z,13.10
2023-05-08T12:39:16.329Z,12.95
2023-05-08T12:41:48.675Z,13.06
2023-05-08T12:44:26.555Z,13.36
2023-05-08T12:46:56.831Z,13.10
2023-05-08T12:49:29.929Z,12.75
2023-05-08T12:52:12.278Z,13.03
2023-05-08T12:54:47.003Z,12.95
2023-05-08T12:57:19.764Z,13.17
2023-05-08T12:59:47.271Z,13.25
2023-05-08T13:02:23.556Z,13.39
2023-05-08T13:04:58.054Z,13.47
2023-05-08T13:07:32.859Z,13.35
2023-05-08T13:10:04.443Z,13.20
2023-05-08T13:12:32.115Z,13.09
2023-05-08T13:14:59.250Z,13.19
2023-05-08T13:17:26.710Z,12.98
2023-05-08T13:19:53.948Z,13.10
2023-05-08T13:22:23.174Z,13.42
2023-05-08T13:24:50.255Z,13.17
2023-05-08T13:27:18.039Z,13.13
2023-05-08T13:29:45.208Z,12.83
2023-05-08T13:32:12.740Z,12.93
2023-05-08T13:34:49.245Z,13.27
2023-05-08T13:37:18.483Z,13.32
2023-05-08T13:39:45.873Z,13.34
2023-05-08T13:42:13.243Z,13.06
2023-05-08T13:44:40.668Z,13.09
2023-05-08T13:47:10.111Z,12.99
2023-05-08T13:49:37.257Z,12.81
2023-05-08T13:52:05.747Z,13.02
2023-05-08T13:54:32.868Z,13.11
2023-05-08T13:57:01.077Z,13.01
2023-05-08T13:59:28.618Z,13.08
2023-05-08T14:01:57.232Z,13.21
2023-05-08T14:04:24.461Z,13.26
2023-05-08T14:06:51.935Z,12.87
2023-05-08T14:09:19.091Z,12.93
2023-05-08T14:11:46.538Z,13.04
2023-05-08T14:14:13.618Z,13.12
2023-05-08T14:16:41.216Z,13.12
2023-05-08T14:19:08.352Z,13.22
2023-05-08T14:21:36.738Z,13.39
2023-05-08T14:24:04.433Z,13.29
2023-05-08T14:26:31.901Z,13.33
2023-05-08T14:28:59.038Z,13.28
2023-05-08T14:31:26.494Z,13.27
2023-05-08T14:33:53.584Z,12.94
2023-05-08T14:36:21.192Z,13.10
2023-05-08T14:38:48.344Z,13.29
2023-05-08T14:41:15.785Z,13.39
2023-05-08T14:43:43.804Z,13.56
2023-05-08T14:46:11.273Z,13.50
2023-05-08T14:48:38.374Z,13.15
2023-05-08T14:51:05.907Z,13.12
2023-05-08T14:53:33.310Z,12.81
2023-05-08T14:56:01.253Z,12.70
2023-05-08T14:58:28.645Z,12.85
2023-05-08T15:00:56.160Z,13.10
2023-05-08T15:03:23.392Z,12.98
2023-05-08T15:05:50.848Z,13.12
2023-05-08T15:08:18.227Z,13.23
2023-05-08T15:10:45.850Z,13.30
2023-05-08T15:13:13.022Z,12.86
2023-05-08T15:15:40.574Z,12.87
2023-05-08T15:18:07.862Z,13.10
2023-05-08T15:20:35.457Z,13.04
2023-05-08T15:23:02.641Z,13.15
2023-05-08T15:25:30.348Z,13.12
2023-05-08T15:27:58.288Z,13.18
2023-05-08T15:30:25.715Z,13.13
2023-05-08T15:32:52.944Z,13.06
2023-05-08T15:35:20.385Z,12.97
2023-05-08T15:37:47.851Z,13.06
2023-05-08T15:40:15.730Z,13.23
2023-05-08T15:42:42.931Z,13.13
2023-05-08T15:45:10.567Z,12.99
2023-05-08T15:47:37.904Z,12.93
2023-05-08T15:50:06.200Z,12.99
2023-05-08T15:52:33.435Z,12.86
2023-05-08T15:55:00.936Z,12.67
2023-05-08T15:57:28.021Z,12.74
2023-05-08T15:59:55.654Z,12.84
2023-05-08T16:02:22.879Z,12.98
2023-05-08T16:04:50.317Z,12.92
2023-05-08T16:07:17.718Z,12.97
2023-05-08T16:09:45.091Z,13.16
2023-05-08T16:12:12.213Z,13.33
2023-05-08T16:14:39.704Z,13.27
2023-05-08T16:17:07.779Z,13.35
2023-05-08T16:19:39.464Z,13.20
2023-05-08T16:22:06.899Z,13.06
2023-05-08T16:24:34.435Z,12.74
2023-05-08T16:27:02.337Z,12.98
2023-05-08T16:29:29.769Z,12.90
2023-05-08T16:31:57.068Z,12.73
2023-05-08T16:34:24.581Z,12.73
2023-05-08T16:36:51.693Z,12.71
2023-05-08T16:39:19.084Z,12.75
2023-05-08T16:41:46.482Z,12.75
2023-05-08T16:44:15.005Z,12.67
2023-05-08T16:46:42.307Z,12.64
2023-05-08T16:49:09.805Z,12.39
2023-05-08T16:51:36.994Z,12.49
2023-05-08T16:54:04.442Z,12.47
2023-05-08T16:56:31.654Z,12.56
2023-05-08T16:59:01.258Z,12.63
2023-05-08T17:01:28.617Z,12.50
2023-05-08T17:03:56.067Z,12.56
2023-05-08T17:06:23.151Z,12.56
2023-05-08T17:08:50.617Z,12.63
2023-05-08T17:11:17.976Z,12.79
2023-05-08T17:13:46.146Z,12.91
2023-05-08T17:16:13.395Z,12.91
2023-05-08T17:18:40.840Z,12.87
2023-05-08T17:21:08.099Z,12.98
2023-05-08T17:23:35.420Z,12.96
2023-05-08T17:26:02.585Z,12.97
2023-05-08T17:28:29.984Z,12.88
2023-05-08T17:30:57.234Z,12.73
2023-05-08T17:33:25.038Z,12.76
2023-05-08T17:35:52.176Z,12.83
2023-05-08T17:38:19.609Z,13.01
2023-05-08T17:40:47.238Z,13.03
2023-05-08T17:43:14.674Z,12.86
2023-05-08T17:45:41.938Z,12.70
2023-05-08T17:48:09.399Z,12.41
2023-05-08T17:50:36.775Z,12.31
2023-05-08T17:53:04.087Z,12.49
2023-05-08T17:55:31.715Z,12.56
2023-05-08T17:57:59.193Z,12.52
2023-05-08T18:00:27.036Z,12.50
2023-05-08T18:02:54.487Z,12.46
2023-05-08T18:05:21.816Z,12.44
2023-05-08T18:07:49.264Z,12.42
2023-05-08T18:10:16.640Z,12.40
2023-05-08T18:12:44.094Z,12.33
2023-05-08T18:15:11.676Z,12.28
2023-05-08T18:17:39.177Z,12.24
2023-05-08T18:20:07.973Z,12.23
2023-05-08T18:22:35.591Z,12.20
2023-05-08T18:25:03.704Z,12.14
2023-05-08T18:27:34.197Z,12.10
2023-05-08T18:30:01.478Z,12.04
2023-05-08T18:32:29.206Z,11.98
2023-05-08T18:34:57.185Z,11.92
2023-05-08T18:37:24.689Z,11.86
2023-05-08T18:39:52.109Z,11.78
2023-05-08T18:42:19.540Z,11.75
2023-05-08T18:44:46.680Z,11.70
2023-05-08T18:47:14.031Z,11.66
2023-05-08T18:49:41.395Z,11.63
2023-05-08T18:52:08.839Z,11.60
2023-05-08T18:54:36.008Z,11.57
2023-05-08T18:57:04.453Z,11.55
2023-05-08T18:59:31.730Z,11.50
2023-05-08T19:01:59.124Z,11.44
2023-05-08T19:04:26.333Z,11.38
2023-05-08T19:06:54.105Z,11.30
2023-05-08T19:09:21.302Z,11.21
2023-05-08T19:11:48.712Z,11.17
2023-05-08T19:14:16.189Z,11.13
2023-05-08T19:16:43.677Z,11.09
2023-05-08T19:19:10.922Z,11.03
2023-05-08T19:21:38.282Z,10.95
2023-05-08T19:24:06.100Z,10.92
2023-05-08T19:26:33.492Z,10.85
2023-05-08T19:29:00.727Z,10.77
2023-05-08T19:31:28.720Z,10.74
2023-05-08T19:33:57.285Z,10.64
2023-05-08T19:36:24.788Z,10.46
2023-05-08T19:38:51.958Z,10.39
2023-05-08T19:41:19.362Z,10.35
2023-05-08T19:43:46.697Z,10.33
2023-05-08T19:46:14.088Z,10.30
2023-05-08T19:48:41.582Z,10.24
2023-05-08T19:51:10.010Z,10.18
2023-05-08T19:53:37.196Z,10.10
2023-05-08T19:56:04.680Z,10.04
2023-05-08T19:58:31.863Z,9.95
2023-05-08T20:00:59.693Z,9.88
2023-05-08T20:03:27.113Z,9.80
2023-05-08T20:05:54.639Z,9.73
2023-05-08T20:08:22.002Z,9.59
2023-05-08T20:10:49.477Z,9.57
2023-05-08T20:13:17.791Z,9.57
2023-05-08T20:15:45.495Z,9.53
2023-05-08T20:18:12.769Z,9.48
2023-05-08T20:20:40.121Z,9.45
2023-05-08T20:23:07.443Z,9.42
2023-05-08T20:25:34.923Z,9.31
2023-05-08T20:28:02.074Z,9.32
2023-05-08T20:30:29.646Z,9.24
2023-05-08T20:33:02.300Z,9.14
2023-05-08T20:35:33.251Z,9.07
2023-05-08T20:38:00.497Z,9.03
2023-05-08T20:40:28.010Z,9.00
2023-05-08T20:42:55.280Z,9.01
2023-05-08T20:45:22.715Z,8.93
2023-05-08T20:47:50.030Z,8.91
2023-05-08T20:50:17.685Z,8.85
2023-05-08T20:52:44.827Z,8.82
2023-05-08T20:55:12.517Z,8.80
2023-05-08T20:57:39.937Z,8.74
2023-05-08T21:00:08.430Z,8.69
2023-05-08T21:02:38.551Z,8.64
2023-05-08T21:05:07.557Z,8.56
2023-05-08T21:07:35.072Z,8.50
2023-05-08T21:10:03.808Z,8.47
2023-05-08T21:12:30.859Z,8.43
2023-05-08T21:14:58.347Z,8.38
2023-05-08T21:17:25.555Z,8.31
2023-05-08T21:19:52.996Z,8.22
2023-05-08T21:22:20.105Z,8.18
2023-05-08T21:24:47.456Z,8.15
2023-05-08T21:27:14.624Z,8.10
2023-05-08T21:29:41.913Z,8.08
2023-05-08T21:32:10.276Z,8.04
2023-05-08T21:34:37.988Z,8.01
2023-05-08T21:37:05.194Z,7.95
2023-05-08T21:39:32.748Z,7.94
2023-05-08T21:41:59.893Z,7.78
2023-05-08T21:44:27.219Z,7.78
2023-05-08T21:46:54.308Z,7.68
2023-05-08T21:49:21.725Z,7.65
2023-05-08T21:51:48.774Z,7.59
2023-05-08T21:54:16.076Z,7.56
2023-05-08T21:56:43.220Z,7.57
2023-05-08T21:59:10.535Z,7.51
2023-05-08T22:01:37.670Z,7.50
2023-05-08T22:04:05.196Z,7.45
2023-05-08T22:06:32.999Z,7.43
2023-05-08T22:09:00.532Z,7.44
2023-05-08T22:11:28.520Z,7.39
2023-05-08T22:13:55.885Z,7.29
2023-05-08T22:16:23.039Z,7.30
2023-05-08T22:18:50.386Z,7.29
2023-05-08T22:21:17.526Z,7.24
2023-05-08T22:23:44.965Z,7.25
2023-05-08T22:26:12.092Z,7.26
2023-05-08T22:28:39.623Z,7.23
2023-05-08T22:31:07.468Z,7.21
2023-05-08T22:33:34.971Z,7.23
2023-05-08T22:36:02.883Z,7.23
2023-05-08T22:38:30.381Z,7.21
2023-05-08T22:41:00.123Z,7.20
2023-05-08T22:43:27.989Z,7.17
2023-05-08T22:45:56.693Z,7.15
2023-05-08T22:48:24.253Z,7.09
2023-05-08T22:50:51.653Z,7.05
2023-05-08T22:53:19.090Z,7.02
2023-05-08T22:55:46.292Z,7.00
2023-05-08T22:58:13.578Z,6.99
2023-05-08T23:00:40.720Z,6.95
2023-05-08T23:03:08.144Z,6.95
2023-05-08T23:05:35.381Z,6.91
2023-05-08T23:08:02.862Z,6.86
2023-05-08T23:10:30.110Z,6.83
2023-05-08T23:12:57.501Z,6.79
2023-05-08T23:15:24.710Z,6.74
2023-05-08T23:17:52.222Z,6.71
2023-05-08T23:20:19.374Z,6.67
2023-05-08T23:22:46.726Z,6.63
2023-05-08T23:25:14.203Z,6.61
2023-05-08T23:27:41.655Z,6.56
2023-05-08T23:30:09.227Z,6.52
2023-05-08T23:32:36.687Z,6.50
2023-05-08T23:35:04.332Z,6.42
2023-05-08T23:37:31.828Z,6.37
2023-05-08T23:39:58.941Z,6.34
2023-05-08T23:42:26.385Z,6.31
2023-05-08T23:44:53.605Z,6.29
2023-05-08T23:47:22.454Z,6.28
2023-05-08T23:49:49.808Z,6.27
2023-05-08T23:52:17.438Z,6.26
2023-05-08T23:54:44.491Z,6.17
2023-05-08T23:57:12.931Z,6.12
2023-05-08T23:59:40.041Z,6.14
